This is the latest recevied weather packets stored in our database for station/object DF1GD-10. If no packets are shown the sender has not sent any weather packets the latest 10 day(s).
| Time | Temp. | Humidity | Pressure | Rain* | Wind** | Luminosity | Snow |
|---|---|---|---|---|---|---|---|
| 1788291775 | 18.89° C | 42% | 1020.2 hPa | - | - | - | - |
| 1788290875 | 19.44° C | 41% | 1020.2 hPa | - | - | - | - |
| 1788289975 | 20° C | 40% | 1020.2 hPa | - | - | - | - |
| 1788289074 | 20.56° C | 38% | 1020.2 hPa | - | - | - | - |
| 1788288174 | 20.56° C | 37% | 1019.9 hPa | - | - | - | - |
| 1788287274 | 21.11° C | 36% | 1019.9 hPa | - | - | - | - |
| 1788286374 | 21.67° C | 33% | 1019.8 hPa | - | - | - | - |
| 1788285474 | 22.22° C | 33% | 1019.7 hPa | - | - | - | - |
| 1788284576 | 22.78° C | 31% | 1019.7 hPa | - | - | - | - |
| 1788283674 | 23.33° C | 28% | 1019.8 hPa | - | - | - | - |
| 1788282773 | 23.89° C | 25% | 1019.7 hPa | - | - | - | - |
| 1788281873 | 23.89° C | 26% | 1019.9 hPa | - | - | - | - |
| 1788280973 | 25° C | 24% | 1019.9 hPa | - | - | - | - |
| 1788280073 | 25.56° C | 22% | 1019.9 hPa | - | - | - | - |
| 1788279173 | 26.11° C | 22% | 1019.9 hPa | - | - | - | - |
| 1788278273 | 26.67° C | 22% | 1020 hPa | - | - | - | - |
| 1788277373 | 26.67° C | 21% | 1020.1 hPa | - | - | - | - |
| 1788276472 | 26.67° C | 21% | 1020.1 hPa | - | - | - | - |
| 1788275572 | 28.89° C | 18% | 1020.4 hPa | - | - | - | - |
| 1788274672 | 28.89° C | 18% | 1020.4 hPa | - | - | - | - |
| 1788273772 | 28.33° C | 18% | 1020.4 hPa | - | - | - | - |
| 1788272872 | 27.78° C | 19% | 1020.5 hPa | - | - | - | - |
| 1788271972 | 27.22° C | 21% | 1020.6 hPa | - | - | - | - |
| 1788271072 | 27.78° C | 21% | 1020.7 hPa | - | - | - | - |
| 1788270171 | 25.56° C | 24% | 1020.8 hPa | - | - | - | - |
* Rain since midnight (hover to see other rain measurements)
** Current wind speed in m/s (hover to see current wind gust speed)